Time;durP1;ratioP1;P1;durP2;ratioP2;P2;SDS_P1;SDS_P2;PMS_P1;PMS_P2;Temp;Humidity;BMP_temperature;BMP_pressure;BME280_temperature;BME280_humidity;BME280_pressure;Samples;Min_cycle;Max_cycle;Signal;HPM_P1;HPM_P2
2023/07/18 00:00:02;;;;;;;1.37;1.00;;;;;;;;;;5060656;27;87910;-54
2023/07/18 00:02:30;;;;;;;1.83;1.27;;;;;;;;;;5045868;27;87607;-54
2023/07/18 00:04:59;;;;;;;1.83;1.30;;;;;;;;;;5062181;27;91408;-55
2023/07/18 00:07:28;;;;;;;2.37;1.07;;;;;;;;;;5060892;27;89829;-54
2023/07/18 00:09:57;;;;;;;2.10;1.20;;;;;;;;;;5045197;27;89013;-55
2023/07/18 00:12:26;;;;;;;1.73;1.10;;;;;;;;;;5058554;27;87932;-55
2023/07/18 00:14:54;;;;;;;1.63;0.90;;;;;;;;;;5061594;27;89004;-55
2023/07/18 00:17:23;;;;;;;3.60;1.13;;;;;;;;;;5045795;27;89109;-54
2023/07/18 00:19:52;;;;;;;1.43;0.90;;;;;;;;;;5043255;27;87611;-55
2023/07/18 00:22:20;;;;;;;3.87;1.33;;;;;;;;;;5044325;27;87808;-54
2023/07/18 00:24:49;;;;;;;2.00;0.83;;;;;;;;;;5041863;27;88524;-54
2023/07/18 00:27:19;;;;;;;1.37;1.00;;;;;;;;;;5044334;27;89120;-55
2023/07/18 00:29:47;;;;;;;1.00;0.90;;;;;;;;;;5061791;27;87722;-55
2023/07/18 00:32:16;;;;;;;1.87;1.00;;;;;;;;;;5060259;27;87577;-54
2023/07/18 00:34:44;;;;;;;3.43;1.07;;;;;;;;;;5042869;27;89556;-54
2023/07/18 00:37:13;;;;;;;2.27;1.20;;;;;;;;;;5041272;27;90028;-54
2023/07/18 00:39:41;;;;;;;4.40;1.23;;;;;;;;;;5042122;27;88731;-54
2023/07/18 00:42:10;;;;;;;1.87;1.07;;;;;;;;;;5041516;27;87778;-54
2023/07/18 00:44:40;;;;;;;1.50;0.90;;;;;;;;;;5056965;27;88671;-55
2023/07/18 00:47:09;;;;;;;1.20;0.80;;;;;;;;;;5056768;27;88969;-55
2023/07/18 00:49:37;;;;;;;1.47;0.90;;;;;;;;;;5041233;27;88258;-54
2023/07/18 00:52:06;;;;;;;2.63;0.80;;;;;;;;;;5040284;27;88163;-54
2023/07/18 00:54:35;;;;;;;0.90;0.67;;;;;;;;;;5054579;27;89203;-54
2023/07/18 00:57:03;;;;;;;4.63;1.37;;;;;;;;;;5060147;27;89337;-54
2023/07/18 00:59:31;;;;;;;2.67;1.27;;;;;;;;;;5060931;27;88824;-54
2023/07/18 01:02:02;;;;;;;1.30;0.97;;;;;;;;;;5049237;27;88352;-54
2023/07/18 01:04:31;;;;;;;1.63;0.90;;;;;;;;;;5042324;27;89729;-54
2023/07/18 01:07:00;;;;;;;1.40;1.00;;;;;;;;;;5042522;27;88140;-55
2023/07/18 01:09:28;;;;;;;1.87;1.03;;;;;;;;;;5052510;27;87731;-54
2023/07/18 01:11:57;;;;;;;1.10;0.90;;;;;;;;;;5042240;27;87678;-54
2023/07/18 01:14:26;;;;;;;1.10;0.90;;;;;;;;;;5040819;27;87627;-54
2023/07/18 01:16:54;;;;;;;1.40;1.07;;;;;;;;;;5041346;27;89166;-54
2023/07/18 01:19:24;;;;;;;1.27;0.90;;;;;;;;;;5041535;27;87586;-54
2023/07/18 01:21:54;;;;;;;0.87;0.87;;;;;;;;;;5041465;27;87693;-54
2023/07/18 01:24:22;;;;;;;1.30;1.20;;;;;;;;;;5041360;27;88736;-54
2023/07/18 01:26:52;;;;;;;1.73;1.00;;;;;;;;;;5040703;27;88996;-54
2023/07/18 01:29:21;;;;;;;2.20;1.00;;;;;;;;;;5040882;27;89446;-54
2023/07/18 01:31:49;;;;;;;0.73;0.73;;;;;;;;;;5041276;27;87914;-54
2023/07/18 01:34:18;;;;;;;1.07;0.70;;;;;;;;;;5041158;27;89502;-54
2023/07/18 01:36:46;;;;;;;1.87;0.80;;;;;;;;;;5040977;27;89173;-54
2023/07/18 01:39:16;;;;;;;3.97;0.80;;;;;;;;;;5041417;27;87771;-54
2023/07/18 01:41:45;;;;;;;0.90;0.80;;;;;;;;;;5040109;27;87363;-54
2023/07/18 01:44:13;;;;;;;1.20;0.93;;;;;;;;;;5052643;27;89728;-54
2023/07/18 01:46:42;;;;;;;1.10;0.90;;;;;;;;;;5060797;27;88291;-54
2023/07/18 01:49:11;;;;;;;0.90;0.70;;;;;;;;;;5053830;27;87888;-54
2023/07/18 01:51:39;;;;;;;1.20;0.63;;;;;;;;;;5041600;27;87978;-54
2023/07/18 01:54:08;;;;;;;0.70;0.53;;;;;;;;;;5039770;27;89796;-54
2023/07/18 01:56:38;;;;;;;1.57;0.50;;;;;;;;;;5041440;27;89166;-55
2023/07/18 01:59:06;;;;;;;0.37;0.37;;;;;;;;;;5057321;27;87766;-54
2023/07/18 02:01:35;;;;;;;0.80;0.57;;;;;;;;;;5051811;27;87592;-54
2023/07/18 02:04:03;;;;;;;0.60;0.50;;;;;;;;;;5039966;27;89577;-54
2023/07/18 02:06:32;;;;;;;0.87;0.50;;;;;;;;;;5040552;27;89107;-54
2023/07/18 02:09:00;;;;;;;1.83;0.73;;;;;;;;;;5040562;27;88851;-54
2023/07/18 02:11:29;;;;;;;0.43;0.43;;;;;;;;;;5054970;27;87530;-54
2023/07/18 02:14:03;;;;;;;1.00;0.57;;;;;;;;;;5058646;27;89587;-54
2023/07/18 02:16:32;;;;;;;1.07;0.80;;;;;;;;;;5059962;27;90878;-54
2023/07/18 02:19:01;;;;;;;1.60;0.50;;;;;;;;;;5060776;27;89708;-54
2023/07/18 02:21:29;;;;;;;0.60;0.60;;;;;;;;;;5040560;27;87702;-54
2023/07/18 02:23:58;;;;;;;0.93;0.70;;;;;;;;;;5041249;27;89700;-54
2023/07/18 02:26:26;;;;;;;2.17;0.60;;;;;;;;;;5054457;27;89307;-54
2023/07/18 02:28:55;;;;;;;0.70;0.50;;;;;;;;;;5060249;27;88132;-54
2023/07/18 02:31:25;;;;;;;1.57;0.60;;;;;;;;;;5043167;27;87272;-54
2023/07/18 02:33:53;;;;;;;0.87;0.50;;;;;;;;;;5040881;27;88604;-54
2023/07/18 02:36:23;;;;;;;2.83;0.77;;;;;;;;;;5054038;27;89235;-54
2023/07/18 02:38:52;;;;;;;0.63;0.40;;;;;;;;;;5059544;27;88826;-54
2023/07/18 02:41:21;;;;;;;0.50;0.40;;;;;;;;;;5025067;27;89992;-55
2023/07/18 02:43:49;;;;;;;2.03;0.73;;;;;;;;;;5042249;27;88537;-55
2023/07/18 02:46:18;;;;;;;0.83;0.40;;;;;;;;;;5057140;27;88404;-54
2023/07/18 02:48:47;;;;;;;1.60;0.50;;;;;;;;;;5057040;27;87786;-54
2023/07/18 02:51:16;;;;;;;0.73;0.60;;;;;;;;;;5050088;27;87648;-54
2023/07/18 02:53:45;;;;;;;1.00;0.90;;;;;;;;;;5037619;27;89064;-54
2023/07/18 02:56:14;;;;;;;1.33;0.93;;;;;;;;;;5037071;27;88611;-54
2023/07/18 02:58:42;;;;;;;1.07;0.80;;;;;;;;;;5037238;27;88053;-54
2023/07/18 03:01:11;;;;;;;2.27;1.30;;;;;;;;;;5046293;27;87659;-54
2023/07/18 03:03:40;;;;;;;0.83;0.70;;;;;;;;;;5056307;27;88984;-54
2023/07/18 03:06:13;;;;;;;0.70;0.70;;;;;;;;;;5044823;27;88993;-54
2023/07/18 03:08:42;;;;;;;2.10;1.17;;;;;;;;;;5044914;27;88667;-54
2023/07/18 03:11:10;;;;;;;1.27;0.87;;;;;;;;;;5038160;27;88264;-54
2023/07/18 03:13:39;;;;;;;2.70;1.27;;;;;;;;;;5036339;27;88240;-54
2023/07/18 03:16:08;;;;;;;1.13;0.97;;;;;;;;;;5036577;27;87664;-55
2023/07/18 03:18:41;;;;;;;1.20;1.10;;;;;;;;;;5040112;28;87734;-54
2023/07/18 03:21:10;;;;;;;1.07;0.97;;;;;;;;;;5040494;27;87707;-54
2023/07/18 03:23:40;;;;;;;1.80;1.13;;;;;;;;;;5039687;27;88143;-55
2023/07/18 03:26:08;;;;;;;2.97;0.90;;;;;;;;;;5040092;28;89061;-54
2023/07/18 03:28:37;;;;;;;1.90;1.30;;;;;;;;;;5039794;27;88369;-54
2023/07/18 03:31:05;;;;;;;1.63;1.40;;;;;;;;;;5039903;27;88500;-54
2023/07/18 03:33:34;;;;;;;2.77;1.43;;;;;;;;;;5039793;28;88674;-54
2023/07/18 03:36:04;;;;;;;1.70;1.30;;;;;;;;;;5019664;28;89168;-54
2023/07/18 03:38:34;;;;;;;2.87;1.60;;;;;;;;;;5019589;28;88732;-54
2023/07/18 03:41:04;;;;;;;1.53;1.10;;;;;;;;;;5019775;28;88222;-54
2023/07/18 03:43:33;;;;;;;1.20;1.10;;;;;;;;;;5034907;27;88601;-55
2023/07/18 03:46:00;;;;;;;2.10;1.40;;;;;;;;;;5059628;27;88045;-54
2023/07/18 03:48:29;;;;;;;4.93;1.20;;;;;;;;;;5058717;27;87726;-54
2023/07/18 03:51:00;;;;;;;1.80;1.27;;;;;;;;;;5054378;27;87672;-54
2023/07/18 03:53:29;;;;;;;1.93;1.33;;;;;;;;;;5038900;27;89787;-54
2023/07/18 03:56:02;;;;;;;1.53;1.40;;;;;;;;;;5055662;27;88957;-54
2023/07/18 03:58:33;;;;;;;1.07;1.00;;;;;;;;;;5058334;27;88402;-54
2023/07/18 04:01:07;;;;;;;1.30;0.93;;;;;;;;;;5055445;27;87650;-54
2023/07/18 04:03:35;;;;;;;2.67;1.17;;;;;;;;;;5058660;27;89836;-54
2023/07/18 04:06:04;;;;;;;2.03;1.10;;;;;;;;;;5059528;27;88042;-54
2023/07/18 04:08:33;;;;;;;1.10;1.00;;;;;;;;;;5055860;27;88059;-54
2023/07/18 04:11:01;;;;;;;1.17;1.00;;;;;;;;;;5046437;27;88195;-54
2023/07/18 04:13:30;;;;;;;4.40;1.60;;;;;;;;;;5042356;27;88529;-55
2023/07/18 04:16:00;;;;;;;1.17;0.90;;;;;;;;;;5051435;27;87795;-54
2023/07/18 04:18:28;;;;;;;1.07;0.97;;;;;;;;;;5050233;27;87863;-54
2023/07/18 04:21:01;;;;;;;1.33;1.17;;;;;;;;;;5044417;27;87996;-54
2023/07/18 04:23:30;;;;;;;2.00;1.07;;;;;;;;;;5042166;27;88519;-54
2023/07/18 04:25:59;;;;;;;1.53;1.33;;;;;;;;;;5041153;27;89296;-54
2023/07/18 04:28:27;;;;;;;1.67;1.23;;;;;;;;;;5042086;27;87413;-54
2023/07/18 04:30:56;;;;;;;1.47;0.97;;;;;;;;;;5049007;27;87683;-54
2023/07/18 04:33:26;;;;;;;2.10;1.37;;;;;;;;;;5059991;27;88525;-54
2023/07/18 04:35:54;;;;;;;1.63;1.10;;;;;;;;;;5046558;27;89157;-54
2023/07/18 04:38:23;;;;;;;1.50;1.07;;;;;;;;;;5043086;27;87575;-54
2023/07/18 04:40:51;;;;;;;1.00;0.90;;;;;;;;;;5041858;27;87651;-54
2023/07/18 04:43:20;;;;;;;1.80;1.10;;;;;;;;;;5045174;27;89704;-54
2023/07/18 04:45:48;;;;;;;0.93;0.87;;;;;;;;;;5054722;27;90304;-54
2023/07/18 04:48:17;;;;;;;2.87;1.30;;;;;;;;;;5041720;27;89543;-54
2023/07/18 04:50:50;;;;;;;1.23;0.93;;;;;;;;;;5043209;27;87662;-55
2023/07/18 04:53:18;;;;;;;1.33;1.00;;;;;;;;;;5048918;27;88741;-56
2023/07/18 04:55:47;;;;;;;0.80;0.80;;;;;;;;;;5045088;27;89142;-56
2023/07/18 04:58:15;;;;;;;1.80;1.30;;;;;;;;;;5041656;27;87768;-56
2023/07/18 05:00:43;;;;;;;2.17;1.30;;;;;;;;;;5052257;27;87656;-57
2023/07/18 05:03:12;;;;;;;1.93;1.00;;;;;;;;;;5061985;27;89766;-57
2023/07/18 05:05:40;;;;;;;1.93;0.90;;;;;;;;;;5050499;27;88062;-57
2023/07/18 05:08:14;;;;;;;1.67;1.17;;;;;;;;;;5041727;27;87483;-57
2023/07/18 05:10:42;;;;;;;4.70;1.10;;;;;;;;;;5041506;27;88204;-57
2023/07/18 05:13:11;;;;;;;0.97;0.73;;;;;;;;;;5041508;27;87550;-56
2023/07/18 05:15:39;;;;;;;1.77;1.10;;;;;;;;;;5049056;27;89187;-56
2023/07/18 05:18:09;;;;;;;1.07;1.07;;;;;;;;;;5061904;27;88866;-57
2023/07/18 05:20:37;;;;;;;0.80;0.80;;;;;;;;;;5061342;27;87292;-56
2023/07/18 05:23:06;;;;;;;0.80;0.80;;;;;;;;;;5061588;27;88734;-55
2023/07/18 05:25:36;;;;;;;0.63;0.63;;;;;;;;;;5057543;27;87776;-56
2023/07/18 05:28:08;;;;;;;2.87;1.20;;;;;;;;;;5030584;27;88437;-57
2023/07/18 05:30:36;;;;;;;2.70;1.20;;;;;;;;;;5039244;27;87698;-57
2023/07/18 05:33:04;;;;;;;1.23;0.93;;;;;;;;;;5041072;27;89049;-56
2023/07/18 05:35:33;;;;;;;1.53;1.00;;;;;;;;;;5040214;27;89036;-55
2023/07/18 05:38:01;;;;;;;0.87;0.70;;;;;;;;;;5040591;27;89733;-56
2023/07/18 05:40:30;;;;;;;1.70;0.80;;;;;;;;;;5039187;27;87939;-54
2023/07/18 05:43:00;;;;;;;3.07;0.70;;;;;;;;;;5046256;27;90110;-55
2023/07/18 05:45:28;;;;;;;2.67;0.80;;;;;;;;;;5040593;27;88327;-55
2023/07/18 05:47:56;;;;;;;0.93;0.70;;;;;;;;;;5040718;27;89072;-54
2023/07/18 05:50:25;;;;;;;0.63;0.53;;;;;;;;;;5040866;27;87171;-55
2023/07/18 05:52:54;;;;;;;0.80;0.60;;;;;;;;;;5042014;27;89714;-55
2023/07/18 05:55:22;;;;;;;3.60;0.80;;;;;;;;;;5040412;27;88124;-54
2023/07/18 05:57:51;;;;;;;1.87;1.10;;;;;;;;;;5040284;27;87788;-55
2023/07/18 06:00:21;;;;;;;1.67;0.80;;;;;;;;;;5041401;27;87827;-55
2023/07/18 06:02:49;;;;;;;2.90;1.37;;;;;;;;;;5041523;27;89663;-55
2023/07/18 06:05:18;;;;;;;1.27;0.80;;;;;;;;;;5039629;27;89194;-55
2023/07/18 06:07:46;;;;;;;4.10;0.97;;;;;;;;;;5040269;27;87826;-55
2023/07/18 06:10:15;;;;;;;4.43;1.33;;;;;;;;;;5040719;27;87595;-55
2023/07/18 06:12:43;;;;;;;1.40;1.00;;;;;;;;;;5041168;27;88900;-56
2023/07/18 06:15:12;;;;;;;2.27;1.03;;;;;;;;;;5048167;27;87949;-54
2023/07/18 06:17:41;;;;;;;1.10;0.77;;;;;;;;;;5059891;27;88795;-56
2023/07/18 06:20:12;;;;;;;1.30;0.80;;;;;;;;;;5060471;27;87572;-56
2023/07/18 06:22:41;;;;;;;2.60;1.13;;;;;;;;;;5045755;27;88525;-56
2023/07/18 06:25:10;;;;;;;3.00;1.00;;;;;;;;;;5059148;27;89312;-58
2023/07/18 06:27:38;;;;;;;0.60;0.60;;;;;;;;;;5060022;27;88725;-56
2023/07/18 06:30:08;;;;;;;1.67;1.10;;;;;;;;;;5045580;27;87418;-56
2023/07/18 06:32:39;;;;;;;2.13;0.87;;;;;;;;;;5040178;27;89589;-56
2023/07/18 06:35:10;;;;;;;1.80;1.20;;;;;;;;;;5040313;28;89250;-56
2023/07/18 06:37:42;;;;;;;1.10;1.00;;;;;;;;;;5036366;27;87649;-56
2023/07/18 06:40:12;;;;;;;2.80;1.50;;;;;;;;;;5042930;27;87509;-56
2023/07/18 06:42:40;;;;;;;1.83;1.53;;;;;;;;;;5039621;27;88505;-56
2023/07/18 06:45:09;;;;;;;1.87;1.40;;;;;;;;;;5052100;27;89291;-56
2023/07/18 06:47:37;;;;;;;2.27;1.57;;;;;;;;;;5040017;27;87716;-56
2023/07/18 06:50:06;;;;;;;3.80;1.83;;;;;;;;;;5039994;27;87937;-56
2023/07/18 06:52:36;;;;;;;3.30;1.87;;;;;;;;;;5042757;27;89583;-56
2023/07/18 06:55:09;;;;;;;3.90;2.10;;;;;;;;;;5042481;27;87897;-56
2023/07/18 06:57:38;;;;;;;4.20;1.80;;;;;;;;;;5043183;27;87665;-56
2023/07/18 07:00:12;;;;;;;2.27;1.77;;;;;;;;;;5044367;27;87659;-55
2023/07/18 07:02:41;;;;;;;3.00;1.50;;;;;;;;;;5042362;27;89947;-56
2023/07/18 07:05:10;;;;;;;2.77;1.70;;;;;;;;;;5042411;28;88214;-56
2023/07/18 07:07:39;;;;;;;5.10;2.37;;;;;;;;;;5043391;27;87943;-56
2023/07/18 07:10:09;;;;;;;3.40;1.80;;;;;;;;;;5043233;27;87657;-56
2023/07/18 07:12:37;;;;;;;2.70;1.73;;;;;;;;;;5043086;27;88849;-56
2023/07/18 07:15:06;;;;;;;2.00;1.80;;;;;;;;;;5042209;27;90178;-55
2023/07/18 07:17:34;;;;;;;4.57;2.63;;;;;;;;;;5043834;27;89815;-56
2023/07/18 07:20:04;;;;;;;2.97;2.33;;;;;;;;;;5051897;27;87623;-55
2023/07/18 07:22:32;;;;;;;4.57;2.97;;;;;;;;;;5055069;27;89919;-56
2023/07/18 07:25:03;;;;;;;4.70;2.17;;;;;;;;;;5052193;27;89175;-56
2023/07/18 07:27:31;;;;;;;8.20;2.40;;;;;;;;;;5052298;27;88836;-56
2023/07/18 07:29:59;;;;;;;3.40;2.10;;;;;;;;;;5046593;27;87655;-55
2023/07/18 07:32:28;;;;;;;3.00;2.27;;;;;;;;;;5052291;27;89605;-56
2023/07/18 07:34:56;;;;;;;2.00;1.60;;;;;;;;;;5053594;27;89072;-56
2023/07/18 07:37:24;;;;;;;4.20;2.00;;;;;;;;;;5051670;27;87646;-56
2023/07/18 07:39:53;;;;;;;2.97;1.97;;;;;;;;;;5051091;27;88021;-56
2023/07/18 07:42:23;;;;;;;2.63;2.00;;;;;;;;;;5046640;27;90345;-56
2023/07/18 07:44:52;;;;;;;3.33;2.23;;;;;;;;;;5046191;27;88094;-56
2023/07/18 07:47:20;;;;;;;2.70;2.00;;;;;;;;;;5053153;27;87924;-55
2023/07/18 07:49:49;;;;;;;3.80;2.13;;;;;;;;;;5057039;27;87686;-55
2023/07/18 07:52:17;;;;;;;3.47;2.10;;;;;;;;;;5061289;27;89887;-56
2023/07/18 07:54:48;;;;;;;5.70;2.13;;;;;;;;;;5062328;27;89223;-55
2023/07/18 07:57:16;;;;;;;3.07;2.10;;;;;;;;;;5063203;27;88873;-55
2023/07/18 07:59:46;;;;;;;3.30;2.30;;;;;;;;;;5043264;27;87565;-55
2023/07/18 08:02:14;;;;;;;3.97;2.00;;;;;;;;;;5055602;27;87251;-56
2023/07/18 08:04:44;;;;;;;6.13;1.97;;;;;;;;;;5042617;27;90159;-56
2023/07/18 08:07:12;;;;;;;5.97;2.30;;;;;;;;;;5042102;27;89165;-55
2023/07/18 08:09:40;;;;;;;2.77;1.87;;;;;;;;;;5042698;27;87627;-54
2023/07/18 08:12:09;;;;;;;3.70;1.40;;;;;;;;;;5043459;27;89428;-55
2023/07/18 08:14:38;;;;;;;2.40;1.67;;;;;;;;;;5056445;27;89236;-56
2023/07/18 08:17:08;;;;;;;3.93;1.83;;;;;;;;;;5048192;27;89982;-56
2023/07/18 08:19:36;;;;;;;1.57;1.33;;;;;;;;;;5048329;27;88492;-56
2023/07/18 08:22:05;;;;;;;1.50;1.40;;;;;;;;;;5047162;27;87667;-56
2023/07/18 08:24:33;;;;;;;4.23;2.23;;;;;;;;;;5042238;27;87616;-54
2023/07/18 08:27:01;;;;;;;3.33;2.03;;;;;;;;;;5041693;27;87815;-55
2023/07/18 08:29:30;;;;;;;3.50;1.77;;;;;;;;;;5040942;27;88387;-55
2023/07/18 08:31:59;;;;;;;4.50;2.03;;;;;;;;;;5038502;27;88630;-55
2023/07/18 08:34:29;;;;;;;2.67;1.37;;;;;;;;;;5041044;27;89122;-55
2023/07/18 08:36:57;;;;;;;2.80;1.40;;;;;;;;;;5042337;27;88858;-55
2023/07/18 08:39:25;;;;;;;2.37;1.30;;;;;;;;;;5041532;27;87595;-55
2023/07/18 08:41:54;;;;;;;2.50;1.27;;;;;;;;;;5044143;27;87561;-57
2023/07/18 08:44:22;;;;;;;1.97;1.47;;;;;;;;;;5040841;27;89307;-55
2023/07/18 08:46:51;;;;;;;2.00;1.40;;;;;;;;;;5041347;27;87865;-56
2023/07/18 08:49:19;;;;;;;2.97;1.20;;;;;;;;;;5038895;28;87298;-55
2023/07/18 08:51:49;;;;;;;3.17;1.50;;;;;;;;;;5040667;27;89851;-55
2023/07/18 08:54:17;;;;;;;5.27;1.30;;;;;;;;;;5041159;27;89207;-55
2023/07/18 08:56:46;;;;;;;2.10;1.30;;;;;;;;;;5042916;27;89987;-55
2023/07/18 08:59:14;;;;;;;5.20;1.40;;;;;;;;;;5040681;27;87782;-56
2023/07/18 09:01:46;;;;;;;5.03;1.17;;;;;;;;;;5038421;27;89708;-54
2023/07/18 09:04:15;;;;;;;5.10;1.67;;;;;;;;;;5041064;27;87932;-55
2023/07/18 09:06:47;;;;;;;2.00;1.70;;;;;;;;;;5041743;27;88711;-55
2023/07/18 09:09:21;;;;;;;3.73;1.50;;;;;;;;;;5041279;27;87635;-56
2023/07/18 09:11:58;;;;;;;3.13;0.97;;;;;;;;;;5043209;27;88746;-55
2023/07/18 09:14:32;;;;;;;1.77;1.23;;;;;;;;;;5040713;27;88126;-55
2023/07/18 09:17:01;;;;;;;2.77;1.30;;;;;;;;;;5042590;27;89013;-56
2023/07/18 09:19:36;;;;;;;3.63;1.50;;;;;;;;;;5041032;27;87872;-56
2023/07/18 09:22:06;;;;;;;2.07;1.30;;;;;;;;;;5041174;27;88654;-55
2023/07/18 09:24:38;;;;;;;1.73;1.30;;;;;;;;;;5041325;27;87561;-56
2023/07/18 09:27:08;;;;;;;2.87;1.10;;;;;;;;;;5051645;27;88109;-53
2023/07/18 09:29:36;;;;;;;7.23;1.60;;;;;;;;;;5043908;27;88037;-48
2023/07/18 09:32:05;;;;;;;4.83;1.90;;;;;;;;;;5033875;27;89275;-48
2023/07/18 09:34:33;;;;;;;2.97;1.33;;;;;;;;;;5044318;27;87657;-48
2023/07/18 09:37:03;;;;;;;3.70;1.17;;;;;;;;;;5040630;27;87210;-48
2023/07/18 09:39:31;;;;;;;3.23;1.37;;;;;;;;;;5041282;27;87747;-49
2023/07/18 09:42:01;;;;;;;2.87;1.13;;;;;;;;;;5047955;27;89898;-59
2023/07/18 09:44:31;;;;;;;5.10;1.40;;;;;;;;;;5043558;27;88586;-60
2023/07/18 09:47:03;;;;;;;3.00;1.50;;;;;;;;;;5020576;28;88498;-58
2023/07/18 09:49:32;;;;;;;5.00;1.93;;;;;;;;;;5028437;28;87306;-57
2023/07/18 09:52:03;;;;;;;2.43;1.60;;;;;;;;;;5041128;28;89385;-56
2023/07/18 09:54:32;;;;;;;3.13;1.40;;;;;;;;;;5040612;27;89890;-56
2023/07/18 09:57:03;;;;;;;2.07;1.17;;;;;;;;;;5040558;27;87718;-55
2023/07/18 09:59:32;;;;;;;3.03;1.60;;;;;;;;;;5040852;27;87548;-54
2023/07/18 10:02:04;;;;;;;1.40;1.10;;;;;;;;;;5040820;27;88599;-55
2023/07/18 10:04:33;;;;;;;2.23;1.47;;;;;;;;;;5040819;27;89003;-56
2023/07/18 10:07:02;;;;;;;2.70;1.20;;;;;;;;;;5040597;27;87569;-56
2023/07/18 10:09:30;;;;;;;3.13;1.33;;;;;;;;;;5040348;27;87894;-56
2023/07/18 10:12:10;;;;;;;4.63;1.63;;;;;;;;;;5040430;28;89749;-59
2023/07/18 10:14:52;;;;;;;3.47;1.40;;;;;;;;;;5040495;27;89247;-55
2023/07/18 10:17:31;;;;;;;2.33;1.40;;;;;;;;;;5040588;27;87749;-57
2023/07/18 10:20:00;;;;;;;2.63;1.30;;;;;;;;;;5040779;27;87502;-56
2023/07/18 10:22:28;;;;;;;2.27;1.30;;;;;;;;;;5040422;27;87483;-56
2023/07/18 10:24:59;;;;;;;1.87;1.37;;;;;;;;;;5040672;27;87999;-56
2023/07/18 10:27:37;;;;;;;4.23;1.20;;;;;;;;;;5044247;27;87757;-57
2023/07/18 10:30:06;;;;;;;4.23;1.77;;;;;;;;;;5041945;27;87459;-55
2023/07/18 10:32:35;;;;;;;3.13;1.70;;;;;;;;;;5043832;27;88371;-56
2023/07/18 10:35:06;;;;;;;2.10;1.63;;;;;;;;;;5042824;27;87853;-55
2023/07/18 10:37:36;;;;;;;3.57;1.83;;;;;;;;;;5043649;27;88756;-56
2023/07/18 10:40:06;;;;;;;2.50;1.30;;;;;;;;;;5043573;27;88688;-56
2023/07/18 10:42:34;;;;;;;2.97;1.47;;;;;;;;;;5043504;27;89281;-56
2023/07/18 10:45:05;;;;;;;6.03;1.60;;;;;;;;;;5043725;27;88172;-55
2023/07/18 10:47:33;;;;;;;2.77;1.63;;;;;;;;;;5043362;27;87467;-55
2023/07/18 10:50:03;;;;;;;4.67;1.67;;;;;;;;;;5043743;27;87719;-57
2023/07/18 10:52:32;;;;;;;2.00;1.27;;;;;;;;;;5043842;27;88797;-56
2023/07/18 10:55:02;;;;;;;3.33;1.73;;;;;;;;;;5042600;28;87517;-55
2023/07/18 10:57:32;;;;;;;1.40;1.30;;;;;;;;;;5044708;28;88980;-56
2023/07/18 11:00:01;;;;;;;4.67;2.10;;;;;;;;;;5043675;28;87827;-56
2023/07/18 11:02:36;;;;;;;8.10;2.93;;;;;;;;;;5043430;28;88683;-56
2023/07/18 11:05:11;;;;;;;2.00;1.43;;;;;;;;;;5043589;28;88219;-54
2023/07/18 11:07:40;;;;;;;1.50;1.17;;;;;;;;;;5042698;27;87536;-55
2023/07/18 11:10:09;;;;;;;3.13;1.50;;;;;;;;;;5043789;27;87584;-56
2023/07/18 11:12:38;;;;;;;4.83;1.40;;;;;;;;;;5043259;27;88190;-55
2023/07/18 11:15:06;;;;;;;1.93;1.17;;;;;;;;;;5043199;27;88148;-55
2023/07/18 11:17:38;;;;;;;2.63;1.20;;;;;;;;;;5043353;27;88808;-56
2023/07/18 11:20:07;;;;;;;2.13;1.23;;;;;;;;;;5043229;27;87757;-56
2023/07/18 11:22:35;;;;;;;1.63;1.40;;;;;;;;;;5042880;27;88489;-55
2023/07/18 11:25:04;;;;;;;3.77;1.57;;;;;;;;;;5042617;27;89013;-55
2023/07/18 11:27:33;;;;;;;3.93;1.63;;;;;;;;;;5042841;27;88761;-55
2023/07/18 11:30:01;;;;;;;2.00;1.63;;;;;;;;;;5039496;27;88066;-56
2023/07/18 11:32:34;;;;;;;2.03;1.30;;;;;;;;;;5040049;27;89443;-57
2023/07/18 11:35:06;;;;;;;2.87;1.87;;;;;;;;;;5042384;27;88953;-56
2023/07/18 11:37:34;;;;;;;3.50;1.10;;;;;;;;;;5056513;27;88038;-56
2023/07/18 11:40:09;;;;;;;3.23;1.23;;;;;;;;;;5040161;28;87970;-56
2023/07/18 11:42:45;;;;;;;1.17;1.03;;;;;;;;;;5036787;27;88554;-56
2023/07/18 11:45:13;;;;;;;1.00;0.87;;;;;;;;;;5039907;28;87532;-55
2023/07/18 11:47:45;;;;;;;4.93;1.10;;;;;;;;;;5039503;28;87739;-55
2023/07/18 11:50:15;;;;;;;1.47;0.67;;;;;;;;;;5039292;27;87951;-55
2023/07/18 11:52:44;;;;;;;0.90;0.50;;;;;;;;;;5039146;27;89193;-55
2023/07/18 11:55:13;;;;;;;0.77;0.77;;;;;;;;;;5038857;27;89477;-54
2023/07/18 11:57:41;;;;;;;2.23;0.90;;;;;;;;;;5039430;27;88901;-55
2023/07/18 12:00:11;;;;;;;4.27;1.00;;;;;;;;;;5057047;27;87672;-55
2023/07/18 12:02:39;;;;;;;0.90;0.77;;;;;;;;;;5059476;27;88748;-55
2023/07/18 12:05:08;;;;;;;1.03;0.90;;;;;;;;;;5057171;27;88970;-55
2023/07/18 12:07:38;;;;;;;2.07;0.80;;;;;;;;;;5039391;27;88834;-55
2023/07/18 12:10:07;;;;;;;1.10;0.87;;;;;;;;;;5039818;27;87686;-55
2023/07/18 12:12:35;;;;;;;3.33;0.90;;;;;;;;;;5044578;27;88604;-56
2023/07/18 12:15:05;;;;;;;1.83;1.20;;;;;;;;;;5053993;27;89098;-56
2023/07/18 12:17:35;;;;;;;2.60;1.10;;;;;;;;;;5059476;27;88808;-55
2023/07/18 12:20:04;;;;;;;3.90;1.00;;;;;;;;;;5059294;27;87628;-55
2023/07/18 12:22:33;;;;;;;2.03;1.27;;;;;;;;;;5051431;27;88865;-55
2023/07/18 12:25:03;;;;;;;1.30;1.17;;;;;;;;;;5042542;27;88605;-55
2023/07/18 12:27:32;;;;;;;1.40;0.90;;;;;;;;;;5054810;27;88762;-55
2023/07/18 12:30:00;;;;;;;0.80;0.80;;;;;;;;;;5059321;27;87800;-55
2023/07/18 12:32:29;;;;;;;0.93;0.80;;;;;;;;;;5059564;27;88577;-55
2023/07/18 12:34:59;;;;;;;3.87;1.10;;;;;;;;;;5058731;27;87717;-55
2023/07/18 12:37:28;;;;;;;2.00;1.00;;;;;;;;;;5059484;27;89017;-55
2023/07/18 12:39:56;;;;;;;3.43;1.07;;;;;;;;;;5059177;27;87846;-55
2023/07/18 12:42:26;;;;;;;3.73;0.80;;;;;;;;;;5058214;27;89769;-55
2023/07/18 12:44:55;;;;;;;2.13;1.03;;;;;;;;;;5059149;27;87588;-55
2023/07/18 12:47:23;;;;;;;1.43;0.83;;;;;;;;;;5059070;27;88840;-55
2023/07/18 12:49:52;;;;;;;1.70;0.83;;;;;;;;;;5059492;27;87659;-55
2023/07/18 12:52:23;;;;;;;1.07;0.80;;;;;;;;;;5058923;27;88318;-55
2023/07/18 12:54:51;;;;;;;0.60;0.60;;;;;;;;;;5058765;27;89177;-55
2023/07/18 12:57:21;;;;;;;1.87;1.20;;;;;;;;;;5059729;27;87457;-55
2023/07/18 12:59:51;;;;;;;2.03;1.00;;;;;;;;;;5059352;27;87925;-55
2023/07/18 13:02:19;;;;;;;1.00;0.73;;;;;;;;;;5058906;27;89843;-55
2023/07/18 13:04:47;;;;;;;0.77;0.77;;;;;;;;;;5058110;27;89025;-55
2023/07/18 13:07:16;;;;;;;0.80;0.67;;;;;;;;;;5058359;27;89231;-56
2023/07/18 13:09:44;;;;;;;1.30;0.80;;;;;;;;;;5059072;27;88070;-55
2023/07/18 13:12:13;;;;;;;1.17;0.70;;;;;;;;;;5058755;27;88507;-55
2023/07/18 13:14:41;;;;;;;1.03;0.80;;;;;;;;;;5058668;27;89243;-55
2023/07/18 13:17:11;;;;;;;3.43;0.90;;;;;;;;;;5058640;27;88694;-55
2023/07/18 13:19:39;;;;;;;1.30;0.80;;;;;;;;;;5058488;27;87564;-55
2023/07/18 13:22:07;;;;;;;0.70;0.70;;;;;;;;;;5058674;27;89601;-55
2023/07/18 13:24:37;;;;;;;0.77;0.70;;;;;;;;;;5058765;27;88018;-55
2023/07/18 13:27:05;;;;;;;0.53;0.53;;;;;;;;;;5058540;27;88948;-55
2023/07/18 13:29:34;;;;;;;1.90;0.93;;;;;;;;;;5058125;27;88040;-55
2023/07/18 13:32:02;;;;;;;0.73;0.60;;;;;;;;;;5058328;27;88542;-55
2023/07/18 13:34:32;;;;;;;0.73;0.60;;;;;;;;;;5058202;27;88154;-55
2023/07/18 13:37:02;;;;;;;0.77;0.70;;;;;;;;;;5058549;27;88937;-55
2023/07/18 13:39:31;;;;;;;1.53;0.50;;;;;;;;;;5058495;27;87326;-55
2023/07/18 13:42:00;;;;;;;2.73;0.77;;;;;;;;;;5057654;27;87669;-55
2023/07/18 13:44:28;;;;;;;1.90;0.67;;;;;;;;;;5058191;27;88714;-55
2023/07/18 13:46:57;;;;;;;1.17;0.50;;;;;;;;;;5058267;27;88940;-55
2023/07/18 13:49:26;;;;;;;0.70;0.70;;;;;;;;;;5058532;27;87837;-55
2023/07/18 13:52:16;;;;;;;0.70;0.70;;;;;;;;;;5057823;27;88270;-55
2023/07/18 13:54:44;;;;;;;1.73;0.80;;;;;;;;;;5056982;27;90407;-55
2023/07/18 13:57:13;;;;;;;3.33;1.03;;;;;;;;;;5058039;27;89923;-55
2023/07/18 13:59:41;;;;;;;2.27;0.80;;;;;;;;;;5057398;27;88576;-55
2023/07/18 14:02:10;;;;;;;2.37;0.60;;;;;;;;;;5057609;27;89776;-55
2023/07/18 14:04:39;;;;;;;0.57;0.50;;;;;;;;;;5057894;27;87585;-55
2023/07/18 14:07:08;;;;;;;0.80;0.80;;;;;;;;;;5057945;27;87709;-55
2023/07/18 14:09:37;;;;;;;3.07;0.67;;;;;;;;;;5057965;27;87692;-55
2023/07/18 14:12:06;;;;;;;0.73;0.73;;;;;;;;;;5058343;27;89981;-55
2023/07/18 14:14:34;;;;;;;2.73;1.20;;;;;;;;;;5058022;27;87512;-55
2023/07/18 14:17:03;;;;;;;1.80;0.57;;;;;;;;;;5057534;27;89074;-55
2023/07/18 14:19:31;;;;;;;1.17;0.93;;;;;;;;;;5057489;27;88175;-55
2023/07/18 14:22:00;;;;;;;0.77;0.63;;;;;;;;;;5057539;27;88776;-55
2023/07/18 14:24:28;;;;;;;1.47;0.80;;;;;;;;;;5057628;27;88076;-55
2023/07/18 14:26:58;;;;;;;0.50;0.50;;;;;;;;;;5057667;27;87835;-55
2023/07/18 14:29:26;;;;;;;1.50;0.90;;;;;;;;;;5057469;27;87644;-55
2023/07/18 14:31:55;;;;;;;1.23;0.90;;;;;;;;;;5057606;27;89703;-55
2023/07/18 14:34:23;;;;;;;1.60;1.00;;;;;;;;;;5057432;27;88073;-55
2023/07/18 14:36:52;;;;;;;2.00;1.30;;;;;;;;;;5057934;27;87793;-55
2023/07/18 14:39:20;;;;;;;0.83;0.80;;;;;;;;;;5057962;27;88473;-55
2023/07/18 14:41:48;;;;;;;1.73;0.60;;;;;;;;;;5056793;27;89494;-55
2023/07/18 14:44:18;;;;;;;1.03;0.60;;;;;;;;;;5056775;27;89069;-55
2023/07/18 14:46:47;;;;;;;3.70;0.80;;;;;;;;;;5057467;27;88884;-55
2023/07/18 14:49:15;;;;;;;1.70;0.77;;;;;;;;;;5057596;27;87641;-55
2023/07/18 14:51:44;;;;;;;0.80;0.80;;;;;;;;;;5057205;27;88295;-55
2023/07/18 14:54:12;;;;;;;0.87;0.60;;;;;;;;;;5056923;27;87986;-55